sensor_id;sensor_type;location;lat;lon;timestamp;P1;durP1;ratioP1;P2;durP2;ratioP2
27790;SDS011;15172;48.218;-1.758;2022-12-31T02:56:08;16.80;;;3.00;;
27790;SDS011;15172;48.218;-1.758;2022-12-31T03:01:49;23.35;;;5.13;;
27790;SDS011;15172;48.218;-1.758;2022-12-31T03:04:38;15.30;;;2.53;;
27790;SDS011;15172;48.218;-1.758;2022-12-31T03:07:13;15.85;;;2.75;;
27790;SDS011;15172;48.218;-1.758;2022-12-31T03:09:44;18.90;;;2.80;;
27790;SDS011;15172;48.218;-1.758;2022-12-31T03:25:07;15.68;;;4.07;;
27790;SDS011;15172;48.218;-1.758;2022-12-31T03:28:20;21.27;;;2.92;;
27790;SDS011;15172;48.218;-1.758;2022-12-31T03:30:48;17.83;;;3.60;;
27790;SDS011;15172;48.218;-1.758;2022-12-31T03:33:15;16.63;;;3.70;;
27790;SDS011;15172;48.218;-1.758;2022-12-31T03:35:42;13.43;;;2.65;;
27790;SDS011;15172;48.218;-1.758;2022-12-31T03:38:09;19.52;;;2.83;;
27790;SDS011;15172;48.218;-1.758;2022-12-31T03:40:36;14.77;;;2.97;;
27790;SDS011;15172;48.218;-1.758;2022-12-31T03:43:04;25.02;;;3.25;;
27790;SDS011;15172;48.218;-1.758;2022-12-31T03:45:30;13.10;;;2.97;;
27790;SDS011;15172;48.218;-1.758;2022-12-31T03:47:56;15.63;;;2.72;;
27790;SDS011;15172;48.218;-1.758;2022-12-31T03:50:21;16.50;;;3.40;;
27790;SDS011;15172;48.218;-1.758;2022-12-31T03:52:47;16.08;;;2.35;;
27790;SDS011;15172;48.218;-1.758;2022-12-31T03:55:13;18.45;;;3.78;;
27790;SDS011;15172;48.218;-1.758;2022-12-31T03:57:39;22.25;;;3.75;;
27790;SDS011;15172;48.218;-1.758;2022-12-31T04:00:05;14.90;;;3.13;;
27790;SDS011;15172;48.218;-1.758;2022-12-31T04:02:33;13.93;;;3.15;;
27790;SDS011;15172;48.218;-1.758;2022-12-31T04:04:59;19.30;;;3.20;;
27790;SDS011;15172;48.218;-1.758;2022-12-31T04:07:25;14.02;;;2.42;;
27790;SDS011;15172;48.218;-1.758;2022-12-31T04:09:51;15.77;;;3.30;;
27790;SDS011;15172;48.218;-1.758;2022-12-31T04:12:16;18.38;;;3.55;;
27790;SDS011;15172;48.218;-1.758;2022-12-31T04:14:42;20.73;;;2.60;;
27790;SDS011;15172;48.218;-1.758;2022-12-31T04:17:07;19.42;;;4.53;;
27790;SDS011;15172;48.218;-1.758;2022-12-31T04:19:33;7.35;;;1.90;;
27790;SDS011;15172;48.218;-1.758;2022-12-31T04:21:59;15.23;;;2.97;;
27790;SDS011;15172;48.218;-1.758;2022-12-31T04:24:25;14.00;;;2.90;;
27790;SDS011;15172;48.218;-1.758;2022-12-31T04:26:51;15.18;;;2.60;;
27790;SDS011;15172;48.218;-1.758;2022-12-31T04:29:16;14.65;;;2.65;;
27790;SDS011;15172;48.218;-1.758;2022-12-31T04:31:42;13.35;;;2.53;;
27790;SDS011;15172;48.218;-1.758;2022-12-31T04:34:08;19.35;;;5.35;;
27790;SDS011;15172;48.218;-1.758;2022-12-31T04:36:33;20.33;;;2.92;;
27790;SDS011;15172;48.218;-1.758;2022-12-31T04:38:59;13.18;;;2.95;;
27790;SDS011;15172;48.218;-1.758;2022-12-31T04:41:25;14.70;;;2.40;;
27790;SDS011;15172;48.218;-1.758;2022-12-31T04:43:55;15.23;;;2.75;;
27790;SDS011;15172;48.218;-1.758;2022-12-31T04:46:26;13.80;;;2.65;;
27790;SDS011;15172;48.218;-1.758;2022-12-31T04:48:55;12.43;;;2.47;;
27790;SDS011;15172;48.218;-1.758;2022-12-31T04:51:22;16.23;;;3.15;;
27790;SDS011;15172;48.218;-1.758;2022-12-31T04:53:48;13.40;;;2.72;;
27790;SDS011;15172;48.218;-1.758;2022-12-31T04:56:14;17.95;;;3.17;;
27790;SDS011;15172;48.218;-1.758;2022-12-31T04:58:41;17.60;;;3.30;;
27790;SDS011;15172;48.218;-1.758;2022-12-31T05:01:07;11.85;;;3.00;;
27790;SDS011;15172;48.218;-1.758;2022-12-31T05:03:33;20.38;;;3.70;;
27790;SDS011;15172;48.218;-1.758;2022-12-31T05:06:04;15.43;;;3.28;;
27790;SDS011;15172;48.218;-1.758;2022-12-31T05:08:33;10.65;;;2.70;;
27790;SDS011;15172;48.218;-1.758;2022-12-31T05:10:59;20.20;;;4.53;;
27790;SDS011;15172;48.218;-1.758;2022-12-31T05:13:24;14.48;;;3.35;;
27790;SDS011;15172;48.218;-1.758;2022-12-31T05:15:51;16.60;;;4.47;;
27790;SDS011;15172;48.218;-1.758;2022-12-31T05:18:17;13.75;;;2.90;;
27790;SDS011;15172;48.218;-1.758;2022-12-31T05:20:42;20.45;;;2.97;;
27790;SDS011;15172;48.218;-1.758;2022-12-31T05:23:08;15.00;;;3.20;;
27790;SDS011;15172;48.218;-1.758;2022-12-31T05:25:35;15.55;;;3.45;;
27790;SDS011;15172;48.218;-1.758;2022-12-31T05:28:01;21.33;;;2.83;;
27790;SDS011;15172;48.218;-1.758;2022-12-31T05:30:27;11.27;;;2.25;;
27790;SDS011;15172;48.218;-1.758;2022-12-31T05:32:53;14.48;;;3.47;;
27790;SDS011;15172;48.218;-1.758;2022-12-31T05:35:18;16.67;;;3.65;;
27790;SDS011;15172;48.218;-1.758;2022-12-31T05:37:44;20.98;;;3.00;;
27790;SDS011;15172;48.218;-1.758;2022-12-31T05:40:10;19.58;;;3.83;;
27790;SDS011;15172;48.218;-1.758;2022-12-31T05:42:36;19.45;;;4.20;;
27790;SDS011;15172;48.218;-1.758;2022-12-31T05:45:02;17.15;;;4.05;;
27790;SDS011;15172;48.218;-1.758;2022-12-31T05:47:29;18.63;;;3.67;;
27790;SDS011;15172;48.218;-1.758;2022-12-31T05:49:54;19.00;;;4.45;;
27790;SDS011;15172;48.218;-1.758;2022-12-31T05:52:20;17.90;;;3.85;;
27790;SDS011;15172;48.218;-1.758;2022-12-31T05:54:46;21.52;;;3.10;;
27790;SDS011;15172;48.218;-1.758;2022-12-31T05:57:12;21.48;;;4.47;;
27790;SDS011;15172;48.218;-1.758;2022-12-31T05:59:37;23.58;;;3.75;;
27790;SDS011;15172;48.218;-1.758;2022-12-31T06:02:03;21.15;;;4.70;;
27790;SDS011;15172;48.218;-1.758;2022-12-31T06:04:29;20.80;;;4.57;;
27790;SDS011;15172;48.218;-1.758;2022-12-31T06:06:54;20.92;;;4.32;;
27790;SDS011;15172;48.218;-1.758;2022-12-31T06:09:20;27.63;;;4.25;;
27790;SDS011;15172;48.218;-1.758;2022-12-31T06:11:45;24.20;;;5.53;;
27790;SDS011;15172;48.218;-1.758;2022-12-31T06:14:12;27.35;;;5.53;;
27790;SDS011;15172;48.218;-1.758;2022-12-31T06:16:38;28.42;;;6.13;;
27790;SDS011;15172;48.218;-1.758;2022-12-31T06:19:04;23.98;;;5.00;;
27790;SDS011;15172;48.218;-1.758;2022-12-31T06:21:30;32.20;;;4.88;;
27790;SDS011;15172;48.218;-1.758;2022-12-31T06:23:55;32.55;;;6.78;;
27790;SDS011;15172;48.218;-1.758;2022-12-31T06:26:22;30.70;;;4.97;;
27790;SDS011;15172;48.218;-1.758;2022-12-31T06:28:48;29.63;;;5.22;;
27790;SDS011;15172;48.218;-1.758;2022-12-31T06:31:14;19.00;;;5.10;;
27790;SDS011;15172;48.218;-1.758;2022-12-31T06:33:40;28.33;;;5.20;;
27790;SDS011;15172;48.218;-1.758;2022-12-31T06:36:07;20.85;;;4.65;;
27790;SDS011;15172;48.218;-1.758;2022-12-31T06:38:36;23.10;;;5.20;;
27790;SDS011;15172;48.218;-1.758;2022-12-31T06:41:03;25.48;;;5.18;;
27790;SDS011;15172;48.218;-1.758;2022-12-31T06:43:29;17.27;;;4.90;;
27790;SDS011;15172;48.218;-1.758;2022-12-31T06:45:58;20.92;;;4.10;;
27790;SDS011;15172;48.218;-1.758;2022-12-31T06:48:28;21.65;;;4.45;;
27790;SDS011;15172;48.218;-1.758;2022-12-31T06:50:53;19.65;;;3.40;;
27790;SDS011;15172;48.218;-1.758;2022-12-31T06:53:19;31.48;;;6.15;;
27790;SDS011;15172;48.218;-1.758;2022-12-31T06:55:46;17.38;;;4.28;;
27790;SDS011;15172;48.218;-1.758;2022-12-31T06:58:13;24.45;;;5.07;;
27790;SDS011;15172;48.218;-1.758;2022-12-31T07:00:41;20.42;;;4.43;;
27790;SDS011;15172;48.218;-1.758;2022-12-31T07:03:49;19.02;;;5.32;;
27790;SDS011;15172;48.218;-1.758;2022-12-31T07:06:29;26.05;;;4.50;;
27790;SDS011;15172;48.218;-1.758;2022-12-31T07:09:16;13.98;;;3.33;;
27790;SDS011;15172;48.218;-1.758;2022-12-31T07:14:37;17.00;;;3.13;;
27790;SDS011;15172;48.218;-1.758;2022-12-31T07:20:09;24.42;;;4.38;;
27790;SDS011;15172;48.218;-1.758;2022-12-31T07:22:39;23.20;;;4.03;;
27790;SDS011;15172;48.218;-1.758;2022-12-31T07:25:06;19.88;;;4.43;;
27790;SDS011;15172;48.218;-1.758;2022-12-31T07:42:21;17.95;;;3.13;;
27790;SDS011;15172;48.218;-1.758;2022-12-31T07:45:06;23.13;;;5.55;;
27790;SDS011;15172;48.218;-1.758;2022-12-31T07:47:52;19.67;;;4.20;;
27790;SDS011;15172;48.218;-1.758;2022-12-31T07:50:21;18.33;;;3.97;;
27790;SDS011;15172;48.218;-1.758;2022-12-31T07:52:49;32.85;;;6.28;;
27790;SDS011;15172;48.218;-1.758;2022-12-31T07:55:15;29.02;;;4.53;;
27790;SDS011;15172;48.218;-1.758;2022-12-31T08:00:28;19.88;;;3.95;;
27790;SDS011;15172;48.218;-1.758;2022-12-31T08:13:41;20.73;;;3.97;;
27790;SDS011;15172;48.218;-1.758;2022-12-31T08:16:11;29.50;;;5.03;;
27790;SDS011;15172;48.218;-1.758;2022-12-31T08:18:37;23.08;;;4.47;;
27790;SDS011;15172;48.218;-1.758;2022-12-31T08:21:19;24.52;;;4.10;;
27790;SDS011;15172;48.218;-1.758;2022-12-31T08:23:51;18.17;;;4.22;;
27790;SDS011;15172;48.218;-1.758;2022-12-31T08:26:34;18.45;;;3.60;;
27790;SDS011;15172;48.218;-1.758;2022-12-31T08:29:13;21.90;;;3.92;;
27790;SDS011;15172;48.218;-1.758;2022-12-31T08:34:51;24.38;;;4.18;;
27790;SDS011;15172;48.218;-1.758;2022-12-31T08:37:32;17.55;;;4.10;;
27790;SDS011;15172;48.218;-1.758;2022-12-31T08:46:01;20.80;;;5.05;;
27790;SDS011;15172;48.218;-1.758;2022-12-31T08:48:39;16.63;;;4.35;;
27790;SDS011;15172;48.218;-1.758;2022-12-31T08:51:14;19.35;;;3.75;;
27790;SDS011;15172;48.218;-1.758;2022-12-31T08:53:44;19.70;;;4.13;;
27790;SDS011;15172;48.218;-1.758;2022-12-31T09:04:58;16.98;;;3.63;;
27790;SDS011;15172;48.218;-1.758;2022-12-31T09:07:28;28.42;;;3.80;;
27790;SDS011;15172;48.218;-1.758;2022-12-31T09:15:57;18.63;;;3.33;;
27790;SDS011;15172;48.218;-1.758;2022-12-31T09:18:30;15.70;;;3.45;;
27790;SDS011;15172;48.218;-1.758;2022-12-31T09:21:02;16.42;;;5.18;;
27790;SDS011;15172;48.218;-1.758;2022-12-31T09:23:32;15.75;;;3.63;;
27790;SDS011;15172;48.218;-1.758;2022-12-31T09:28:43;17.33;;;3.95;;
27790;SDS011;15172;48.218;-1.758;2022-12-31T09:36:49;18.63;;;4.03;;
27790;SDS011;15172;48.218;-1.758;2022-12-31T09:53:17;18.50;;;3.35;;
27790;SDS011;15172;48.218;-1.758;2022-12-31T09:55:55;19.67;;;3.72;;
27790;SDS011;15172;48.218;-1.758;2022-12-31T09:58:42;16.65;;;3.10;;
27790;SDS011;15172;48.218;-1.758;2022-12-31T10:12:44;18.45;;;3.67;;
27790;SDS011;15172;48.218;-1.758;2022-12-31T10:18:35;15.77;;;2.90;;
27790;SDS011;15172;48.218;-1.758;2022-12-31T10:27:26;18.67;;;4.32;;
27790;SDS011;15172;48.218;-1.758;2022-12-31T10:30:15;20.88;;;3.53;;
27790;SDS011;15172;48.218;-1.758;2022-12-31T10:41:29;20.00;;;3.22;;
27790;SDS011;15172;48.218;-1.758;2022-12-31T10:47:30;15.43;;;2.90;;
27790;SDS011;15172;48.218;-1.758;2022-12-31T11:01:24;19.35;;;3.45;;
27790;SDS011;15172;48.218;-1.758;2022-12-31T11:18:30;19.05;;;4.10;;
27790;SDS011;15172;48.218;-1.758;2022-12-31T11:46:50;19.23;;;3.42;;
27790;SDS011;15172;48.218;-1.758;2022-12-31T11:54:50;19.90;;;4.28;;
27790;SDS011;15172;48.218;-1.758;2022-12-31T11:57:32;16.00;;;3.35;;
27790;SDS011;15172;48.218;-1.758;2022-12-31T12:00:01;15.27;;;4.20;;
27790;SDS011;15172;48.218;-1.758;2022-12-31T12:02:56;15.93;;;4.22;;
27790;SDS011;15172;48.218;-1.758;2022-12-31T12:05:26;21.63;;;3.97;;
27790;SDS011;15172;48.218;-1.758;2022-12-31T12:07:53;14.90;;;3.50;;
27790;SDS011;15172;48.218;-1.758;2022-12-31T12:10:26;16.20;;;4.63;;
27790;SDS011;15172;48.218;-1.758;2022-12-31T12:12:57;14.43;;;3.58;;
27790;SDS011;15172;48.218;-1.758;2022-12-31T12:15:26;19.55;;;3.53;;
27790;SDS011;15172;48.218;-1.758;2022-12-31T12:18:05;18.98;;;3.83;;
27790;SDS011;15172;48.218;-1.758;2022-12-31T12:23:24;23.10;;;3.05;;
27790;SDS011;15172;48.218;-1.758;2022-12-31T12:25:55;14.82;;;2.30;;
27790;SDS011;15172;48.218;-1.758;2022-12-31T12:28:26;19.10;;;4.53;;
27790;SDS011;15172;48.218;-1.758;2022-12-31T12:30:57;21.83;;;3.65;;
27790;SDS011;15172;48.218;-1.758;2022-12-31T12:33:25;20.75;;;3.97;;
27790;SDS011;15172;48.218;-1.758;2022-12-31T12:36:10;18.85;;;3.67;;
27790;SDS011;15172;48.218;-1.758;2022-12-31T12:38:42;19.33;;;3.42;;
27790;SDS011;15172;48.218;-1.758;2022-12-31T12:41:17;13.85;;;3.72;;
27790;SDS011;15172;48.218;-1.758;2022-12-31T12:43:48;13.80;;;3.22;;
27790;SDS011;15172;48.218;-1.758;2022-12-31T12:48:48;22.33;;;4.45;;
27790;SDS011;15172;48.218;-1.758;2022-12-31T12:51:30;21.27;;;3.67;;
27790;SDS011;15172;48.218;-1.758;2022-12-31T12:56:41;17.85;;;3.35;;
27790;SDS011;15172;48.218;-1.758;2022-12-31T13:08:07;16.92;;;3.38;;
27790;SDS011;15172;48.218;-1.758;2022-12-31T13:25:25;25.13;;;3.58;;
27790;SDS011;15172;48.218;-1.758;2022-12-31T13:27:53;13.25;;;4.38;;
27790;SDS011;15172;48.218;-1.758;2022-12-31T13:30:24;16.80;;;3.17;;
27790;SDS011;15172;48.218;-1.758;2022-12-31T13:36:37;18.98;;;3.58;;
27790;SDS011;15172;48.218;-1.758;2022-12-31T13:39:17;23.08;;;3.60;;
27790;SDS011;15172;48.218;-1.758;2022-12-31T13:45:25;15.73;;;2.95;;
27790;SDS011;15172;48.218;-1.758;2022-12-31T13:48:20;22.65;;;3.85;;
27790;SDS011;15172;48.218;-1.758;2022-12-31T13:56:40;21.08;;;4.00;;
27790;SDS011;15172;48.218;-1.758;2022-12-31T14:01:58;32.33;;;4.37;;
27790;SDS011;15172;48.218;-1.758;2022-12-31T14:05:11;20.77;;;4.32;;
27790;SDS011;15172;48.218;-1.758;2022-12-31T14:07:43;20.13;;;4.35;;
27790;SDS011;15172;48.218;-1.758;2022-12-31T14:10:13;18.45;;;4.53;;
27790;SDS011;15172;48.218;-1.758;2022-12-31T14:13:00;18.60;;;4.13;;
27790;SDS011;15172;48.218;-1.758;2022-12-31T14:24:45;18.48;;;3.90;;
27790;SDS011;15172;48.218;-1.758;2022-12-31T14:29:54;15.05;;;3.13;;
27790;SDS011;15172;48.218;-1.758;2022-12-31T14:49:55;18.92;;;4.47;;
27790;SDS011;15172;48.218;-1.758;2022-12-31T14:55:22;22.98;;;4.32;;
27790;SDS011;15172;48.218;-1.758;2022-12-31T14:57:53;17.90;;;3.63;;
27790;SDS011;15172;48.218;-1.758;2022-12-31T15:00:34;18.13;;;3.83;;
27790;SDS011;15172;48.218;-1.758;2022-12-31T15:05:29;11.88;;;3.05;;
27790;SDS011;15172;48.218;-1.758;2022-12-31T15:08:20;18.35;;;3.78;;
27790;SDS011;15172;48.218;-1.758;2022-12-31T15:11:11;20.15;;;3.30;;
27790;SDS011;15172;48.218;-1.758;2022-12-31T15:28:30;19.45;;;3.55;;
27790;SDS011;15172;48.218;-1.758;2022-12-31T15:31:13;16.98;;;3.65;;
27790;SDS011;15172;48.218;-1.758;2022-12-31T15:36:35;16.23;;;3.28;;
27790;SDS011;15172;48.218;-1.758;2022-12-31T15:39:20;13.82;;;3.38;;
27790;SDS011;15172;48.218;-1.758;2022-12-31T15:42:26;23.90;;;4.20;;
27790;SDS011;15172;48.218;-1.758;2022-12-31T15:45:06;13.48;;;3.70;;
27790;SDS011;15172;48.218;-1.758;2022-12-31T15:47:45;17.15;;;3.45;;
27790;SDS011;15172;48.218;-1.758;2022-12-31T15:50:19;13.95;;;2.72;;
27790;SDS011;15172;48.218;-1.758;2022-12-31T15:53:04;18.00;;;3.85;;
27790;SDS011;15172;48.218;-1.758;2022-12-31T15:55:41;14.55;;;3.22;;
27790;SDS011;15172;48.218;-1.758;2022-12-31T15:58:16;16.55;;;3.50;;
27790;SDS011;15172;48.218;-1.758;2022-12-31T16:03:40;16.20;;;3.25;;
27790;SDS011;15172;48.218;-1.758;2022-12-31T16:06:10;15.50;;;5.35;;
27790;SDS011;15172;48.218;-1.758;2022-12-31T16:08:37;21.42;;;3.92;;
27790;SDS011;15172;48.218;-1.758;2022-12-31T16:11:08;20.60;;;3.97;;
27790;SDS011;15172;48.218;-1.758;2022-12-31T16:13:35;16.42;;;3.90;;
27790;SDS011;15172;48.218;-1.758;2022-12-31T16:16:06;17.33;;;4.10;;
27790;SDS011;15172;48.218;-1.758;2022-12-31T16:18:42;22.10;;;5.15;;
27790;SDS011;15172;48.218;-1.758;2022-12-31T16:23:55;16.50;;;5.80;;
27790;SDS011;15172;48.218;-1.758;2022-12-31T16:26:23;15.02;;;3.97;;
27790;SDS011;15172;48.218;-1.758;2022-12-31T16:28:57;14.77;;;3.30;;
27790;SDS011;15172;48.218;-1.758;2022-12-31T16:31:28;22.92;;;4.70;;
27790;SDS011;15172;48.218;-1.758;2022-12-31T16:34:10;19.63;;;4.22;;
27790;SDS011;15172;48.218;-1.758;2022-12-31T16:36:38;22.65;;;4.35;;
27790;SDS011;15172;48.218;-1.758;2022-12-31T16:41:48;22.13;;;4.15;;
27790;SDS011;15172;48.218;-1.758;2022-12-31T16:44:28;18.70;;;3.65;;
27790;SDS011;15172;48.218;-1.758;2022-12-31T16:46:58;17.40;;;3.90;;
27790;SDS011;15172;48.218;-1.758;2022-12-31T16:49:26;22.58;;;5.75;;
27790;SDS011;15172;48.218;-1.758;2022-12-31T16:51:54;22.50;;;5.55;;
27790;SDS011;15172;48.218;-1.758;2022-12-31T16:54:31;22.98;;;4.60;;
27790;SDS011;15172;48.218;-1.758;2022-12-31T16:57:00;19.63;;;3.95;;
27790;SDS011;15172;48.218;-1.758;2022-12-31T16:59:49;17.42;;;3.70;;
27790;SDS011;15172;48.218;-1.758;2022-12-31T17:02:19;21.73;;;4.30;;
27790;SDS011;15172;48.218;-1.758;2022-12-31T17:10:07;15.88;;;5.60;;
27790;SDS011;15172;48.218;-1.758;2022-12-31T17:12:47;18.38;;;4.13;;
27790;SDS011;15172;48.218;-1.758;2022-12-31T17:15:22;14.65;;;3.55;;
27790;SDS011;15172;48.218;-1.758;2022-12-31T17:17:52;23.52;;;4.85;;
27790;SDS011;15172;48.218;-1.758;2022-12-31T17:20:26;18.08;;;6.30;;
27790;SDS011;15172;48.218;-1.758;2022-12-31T17:23:02;22.65;;;6.05;;
27790;SDS011;15172;48.218;-1.758;2022-12-31T17:25:32;22.13;;;4.38;;
27790;SDS011;15172;48.218;-1.758;2022-12-31T17:30:46;22.85;;;6.38;;
27790;SDS011;15172;48.218;-1.758;2022-12-31T17:35:44;23.95;;;4.80;;
27790;SDS011;15172;48.218;-1.758;2022-12-31T17:40:45;23.38;;;5.85;;
27790;SDS011;15172;48.218;-1.758;2022-12-31T17:43:16;18.15;;;5.40;;
27790;SDS011;15172;48.218;-1.758;2022-12-31T17:45:43;24.23;;;5.40;;
27790;SDS011;15172;48.218;-1.758;2022-12-31T17:48:11;24.48;;;5.68;;
27790;SDS011;15172;48.218;-1.758;2022-12-31T17:50:48;20.60;;;5.40;;
27790;SDS011;15172;48.218;-1.758;2022-12-31T17:53:15;19.42;;;4.60;;
27790;SDS011;15172;48.218;-1.758;2022-12-31T17:55:41;21.40;;;4.32;;
27790;SDS011;15172;48.218;-1.758;2022-12-31T17:58:16;30.30;;;5.88;;
27790;SDS011;15172;48.218;-1.758;2022-12-31T18:00:45;24.13;;;3.80;;
27790;SDS011;15172;48.218;-1.758;2022-12-31T18:03:10;23.65;;;4.95;;
27790;SDS011;15172;48.218;-1.758;2022-12-31T18:05:36;29.90;;;6.55;;
27790;SDS011;15172;48.218;-1.758;2022-12-31T18:08:02;25.95;;;5.63;;
27790;SDS011;15172;48.218;-1.758;2022-12-31T18:10:29;25.33;;;6.63;;
27790;SDS011;15172;48.218;-1.758;2022-12-31T18:12:59;27.75;;;6.72;;
27790;SDS011;15172;48.218;-1.758;2022-12-31T18:15:28;21.60;;;5.13;;
27790;SDS011;15172;48.218;-1.758;2022-12-31T18:17:54;29.35;;;5.80;;
27790;SDS011;15172;48.218;-1.758;2022-12-31T18:20:21;24.77;;;6.30;;
27790;SDS011;15172;48.218;-1.758;2022-12-31T18:22:48;28.98;;;6.68;;
27790;SDS011;15172;48.218;-1.758;2022-12-31T18:25:19;26.40;;;6.38;;
27790;SDS011;15172;48.218;-1.758;2022-12-31T18:27:47;28.00;;;5.80;;
27790;SDS011;15172;48.218;-1.758;2022-12-31T18:30:13;30.27;;;6.50;;
27790;SDS011;15172;48.218;-1.758;2022-12-31T18:32:42;26.02;;;5.63;;
27790;SDS011;15172;48.218;-1.758;2022-12-31T18:35:18;39.80;;;7.60;;
27790;SDS011;15172;48.218;-1.758;2022-12-31T18:37:50;17.88;;;5.25;;
27790;SDS011;15172;48.218;-1.758;2022-12-31T18:40:15;26.25;;;6.15;;
27790;SDS011;15172;48.218;-1.758;2022-12-31T18:42:43;24.75;;;6.35;;
27790;SDS011;15172;48.218;-1.758;2022-12-31T18:45:12;36.97;;;6.60;;
27790;SDS011;15172;48.218;-1.758;2022-12-31T18:47:39;33.95;;;6.60;;
27790;SDS011;15172;48.218;-1.758;2022-12-31T18:50:05;35.80;;;8.48;;
27790;SDS011;15172;48.218;-1.758;2022-12-31T18:52:34;41.05;;;7.90;;
27790;SDS011;15172;48.218;-1.758;2022-12-31T18:57:49;35.20;;;8.02;;
27790;SDS011;15172;48.218;-1.758;2022-12-31T19:00:16;33.50;;;9.02;;
27790;SDS011;15172;48.218;-1.758;2022-12-31T19:02:50;41.28;;;8.27;;
27790;SDS011;15172;48.218;-1.758;2022-12-31T19:05:22;32.97;;;7.25;;
27790;SDS011;15172;48.218;-1.758;2022-12-31T19:07:52;28.02;;;7.85;;
27790;SDS011;15172;48.218;-1.758;2022-12-31T19:10:18;28.42;;;6.20;;
27790;SDS011;15172;48.218;-1.758;2022-12-31T19:12:47;28.70;;;6.07;;
27790;SDS011;15172;48.218;-1.758;2022-12-31T19:17:54;33.70;;;6.95;;
27790;SDS011;15172;48.218;-1.758;2022-12-31T19:20:23;40.88;;;7.47;;
27790;SDS011;15172;48.218;-1.758;2022-12-31T19:22:49;31.95;;;7.35;;
27790;SDS011;15172;48.218;-1.758;2022-12-31T19:25:16;31.83;;;9.23;;
27790;SDS011;15172;48.218;-1.758;2022-12-31T19:27:44;29.50;;;7.10;;
27790;SDS011;15172;48.218;-1.758;2022-12-31T19:30:17;35.05;;;7.13;;
27790;SDS011;15172;48.218;-1.758;2022-12-31T19:32:52;34.45;;;7.20;;
27790;SDS011;15172;48.218;-1.758;2022-12-31T19:35:18;33.58;;;8.65;;
27790;SDS011;15172;48.218;-1.758;2022-12-31T19:37:48;39.05;;;7.80;;
27790;SDS011;15172;48.218;-1.758;2022-12-31T19:40:22;25.50;;;6.13;;
27790;SDS011;15172;48.218;-1.758;2022-12-31T19:42:49;33.97;;;7.45;;
27790;SDS011;15172;48.218;-1.758;2022-12-31T19:45:22;29.92;;;7.10;;
27790;SDS011;15172;48.218;-1.758;2022-12-31T19:47:50;38.78;;;6.68;;
27790;SDS011;15172;48.218;-1.758;2022-12-31T19:50:17;38.80;;;7.68;;
27790;SDS011;15172;48.218;-1.758;2022-12-31T19:52:45;28.42;;;6.45;;
27790;SDS011;15172;48.218;-1.758;2022-12-31T19:55:18;25.25;;;5.93;;
27790;SDS011;15172;48.218;-1.758;2022-12-31T19:57:53;27.00;;;6.45;;
27790;SDS011;15172;48.218;-1.758;2022-12-31T20:00:20;31.85;;;8.23;;
27790;SDS011;15172;48.218;-1.758;2022-12-31T20:02:46;27.60;;;5.53;;
27790;SDS011;15172;48.218;-1.758;2022-12-31T20:05:13;29.52;;;6.28;;
27790;SDS011;15172;48.218;-1.758;2022-12-31T20:07:43;36.85;;;7.93;;
27790;SDS011;15172;48.218;-1.758;2022-12-31T20:10:13;30.60;;;6.10;;
27790;SDS011;15172;48.218;-1.758;2022-12-31T20:12:39;25.85;;;5.95;;
27790;SDS011;15172;48.218;-1.758;2022-12-31T20:15:05;28.95;;;5.72;;
27790;SDS011;15172;48.218;-1.758;2022-12-31T20:17:32;31.02;;;7.13;;
27790;SDS011;15172;48.218;-1.758;2022-12-31T20:19:57;24.90;;;5.85;;
27790;SDS011;15172;48.218;-1.758;2022-12-31T20:22:23;30.08;;;6.55;;
27790;SDS011;15172;48.218;-1.758;2022-12-31T20:24:51;23.55;;;5.10;;
27790;SDS011;15172;48.218;-1.758;2022-12-31T20:27:17;23.60;;;5.68;;
27790;SDS011;15172;48.218;-1.758;2022-12-31T20:29:43;26.23;;;6.75;;
27790;SDS011;15172;48.218;-1.758;2022-12-31T20:32:11;25.67;;;5.63;;
27790;SDS011;15172;48.218;-1.758;2022-12-31T20:34:39;24.80;;;5.50;;
27790;SDS011;15172;48.218;-1.758;2022-12-31T20:37:04;26.65;;;5.55;;
27790;SDS011;15172;48.218;-1.758;2022-12-31T20:39:33;27.88;;;5.93;;
27790;SDS011;15172;48.218;-1.758;2022-12-31T20:41:59;15.38;;;4.63;;
27790;SDS011;15172;48.218;-1.758;2022-12-31T20:44:25;26.38;;;5.60;;
27790;SDS011;15172;48.218;-1.758;2022-12-31T20:46:56;27.20;;;5.57;;
27790;SDS011;15172;48.218;-1.758;2022-12-31T20:49:24;34.80;;;7.35;;
27790;SDS011;15172;48.218;-1.758;2022-12-31T20:51:55;31.00;;;5.78;;
27790;SDS011;15172;48.218;-1.758;2022-12-31T20:54:21;25.70;;;5.95;;
27790;SDS011;15172;48.218;-1.758;2022-12-31T20:56:47;27.58;;;7.00;;
27790;SDS011;15172;48.218;-1.758;2022-12-31T20:59:15;25.90;;;5.38;;
27790;SDS011;15172;48.218;-1.758;2022-12-31T21:01:43;40.50;;;8.60;;
27790;SDS011;15172;48.218;-1.758;2022-12-31T21:04:09;27.63;;;5.75;;
27790;SDS011;15172;48.218;-1.758;2022-12-31T21:06:35;33.10;;;8.52;;
27790;SDS011;15172;48.218;-1.758;2022-12-31T21:09:02;25.20;;;5.47;;
27790;SDS011;15172;48.218;-1.758;2022-12-31T21:11:29;23.52;;;6.18;;
27790;SDS011;15172;48.218;-1.758;2022-12-31T21:14:13;30.02;;;7.22;;
27790;SDS011;15172;48.218;-1.758;2022-12-31T21:16:39;26.00;;;6.72;;
27790;SDS011;15172;48.218;-1.758;2022-12-31T21:19:07;33.13;;;7.25;;
27790;SDS011;15172;48.218;-1.758;2022-12-31T21:21:35;23.23;;;5.32;;
27790;SDS011;15172;48.218;-1.758;2022-12-31T21:24:01;24.05;;;5.82;;
27790;SDS011;15172;48.218;-1.758;2022-12-31T21:26:29;20.70;;;5.07;;
27790;SDS011;15172;48.218;-1.758;2022-12-31T21:28:58;29.48;;;8.05;;
27790;SDS011;15172;48.218;-1.758;2022-12-31T21:31:24;28.92;;;5.43;;
27790;SDS011;15172;48.218;-1.758;2022-12-31T21:33:53;24.98;;;8.05;;
27790;SDS011;15172;48.218;-1.758;2022-12-31T21:36:21;23.30;;;4.97;;
27790;SDS011;15172;48.218;-1.758;2022-12-31T21:38:50;25.60;;;4.93;;
27790;SDS011;15172;48.218;-1.758;2022-12-31T21:41:16;23.05;;;5.00;;
27790;SDS011;15172;48.218;-1.758;2022-12-31T21:44:03;19.52;;;4.85;;
27790;SDS011;15172;48.218;-1.758;2022-12-31T21:46:31;24.45;;;5.57;;
27790;SDS011;15172;48.218;-1.758;2022-12-31T21:49:01;22.13;;;4.38;;
27790;SDS011;15172;48.218;-1.758;2022-12-31T21:51:27;21.30;;;4.38;;
27790;SDS011;15172;48.218;-1.758;2022-12-31T21:53:53;19.85;;;4.38;;
27790;SDS011;15172;48.218;-1.758;2022-12-31T21:56:19;26.35;;;6.63;;
27790;SDS011;15172;48.218;-1.758;2022-12-31T21:58:50;26.67;;;7.53;;
27790;SDS011;15172;48.218;-1.758;2022-12-31T22:01:39;24.13;;;5.80;;
27790;SDS011;15172;48.218;-1.758;2022-12-31T22:04:24;28.23;;;7.22;;
27790;SDS011;15172;48.218;-1.758;2022-12-31T22:06:52;28.02;;;6.43;;
27790;SDS011;15172;48.218;-1.758;2022-12-31T22:09:18;27.02;;;5.30;;
27790;SDS011;15172;48.218;-1.758;2022-12-31T22:11:46;29.10;;;5.95;;
27790;SDS011;15172;48.218;-1.758;2022-12-31T22:14:12;27.50;;;4.95;;
27790;SDS011;15172;48.218;-1.758;2022-12-31T22:16:37;23.90;;;4.60;;
27790;SDS011;15172;48.218;-1.758;2022-12-31T22:19:03;30.02;;;5.38;;
27790;SDS011;15172;48.218;-1.758;2022-12-31T22:21:29;22.83;;;5.95;;
27790;SDS011;15172;48.218;-1.758;2022-12-31T22:23:58;28.40;;;5.78;;
27790;SDS011;15172;48.218;-1.758;2022-12-31T22:26:29;31.65;;;4.65;;
27790;SDS011;15172;48.218;-1.758;2022-12-31T22:28:55;25.42;;;5.18;;
27790;SDS011;15172;48.218;-1.758;2022-12-31T22:31:24;28.48;;;5.50;;
27790;SDS011;15172;48.218;-1.758;2022-12-31T22:33:53;28.70;;;5.28;;
27790;SDS011;15172;48.218;-1.758;2022-12-31T22:36:20;20.85;;;4.80;;
27790;SDS011;15172;48.218;-1.758;2022-12-31T22:38:47;24.33;;;5.60;;
27790;SDS011;15172;48.218;-1.758;2022-12-31T22:41:14;27.10;;;6.05;;
27790;SDS011;15172;48.218;-1.758;2022-12-31T22:43:46;27.17;;;6.90;;
27790;SDS011;15172;48.218;-1.758;2022-12-31T22:46:21;30.70;;;6.50;;
27790;SDS011;15172;48.218;-1.758;2022-12-31T22:48:49;29.08;;;5.47;;